Bellevue, WA (98004)

7:18 AM PST on February 12, 2016 (GMT -0800)
Clyde Hill | | Change Station
CLOSE
Current Station
Personal Weather Station
Location: Clyde Hill, WA
Elevation: 190 ft
Nearby Weather Stations

Elev 190 ft 47.62 °N, 122.22 °W | Updated 2 minutes ago

Overcast
Overcast
51.5 °F
Feels Like 51.5 °F
N
3.0
Wind Variable Wind from SE
Gusts 5.0 mph

Today
High -- | Low -- °F
--% Chance of Precip.
Yesterday
High -- | Low -- °F
Precip. -- in
Pressure 30.07 in
Visibility 10.0 miles
Clouds Few 800 ft
Mostly Cloudy 1000 ft
Mostly Cloudy 3500 ft
Dew Point 50 °F
Humidity 93%
Rainfall 0.36 in
Snow Depth Not available.
7:19 AM 5:26 PM
Waxing Crescent, 21% visible
SPECI KBFI 121507Z 14009KT 10SM FEW008 BKN010 BKN035 11/11 A3007 RMK AO2 T01060106 $
Pressure 30.07 in
Visibility 10.0 miles
Clouds Few 800 ft
Mostly Cloudy 1000 ft
Mostly Cloudy 3500 ft
Dew Point 50 °F
Humidity 93%
Rainfall 0.36 in
Snow Depth Not available.
7:19 AM 5:26 PM
Waxing Crescent, 21% visible
SPECI KBFI 121507Z 14009KT 10SM FEW008 BKN010 BKN035 11/11 A3007 RMK AO2 T01060106 $

10-Day Weather Forecast

Almanac

Astronomy

Feb. 12, 2016 Rise Set
Actual Time
Civil Twilight
Nautical Twilight
Astronomical Twilight
Moon
Length of Visible Light
Length of Day
Tomorrow will be .
, % of the Moon is Illuminated

Today's Extremes

State Highs State Lows

Community

WunderPhotos

Upload Photos

1,892,325 photos uploaded!

WunderBlog® & News

Nearby

Air Quality

  Air Quality AQ Index Pollutant
Not available.

Snow Depth

Station Depth Elevation

Earthquake Activity

City Distance Mag. Time & Date
Minimum magnitude displayed is 2.5.

Coastal Water Temperatures

Place Temperature

Stations

Nearby Weather Stations

Station Location Temp. Windchill Dew Point Humidity Wind Precip. Elev Updated Type
                   

Watches & Warnings

There are currently no watches in effect.